createdAt,value
2023-01-11T00:00:58.817Z,967.90
2023-01-11T00:01:59.074Z,967.83
2023-01-11T00:02:58.708Z,967.90
2023-01-11T00:03:58.666Z,967.87
2023-01-11T00:04:58.632Z,967.84
2023-01-11T00:06:00.700Z,967.80
2023-01-11T00:06:58.729Z,967.83
2023-01-11T00:07:59.688Z,967.84
2023-01-11T00:08:58.440Z,967.76
2023-01-11T00:09:58.379Z,967.75
2023-01-11T00:10:58.348Z,967.72
2023-01-11T00:11:58.491Z,967.72
2023-01-11T00:12:58.251Z,967.67
2023-01-11T00:13:58.710Z,967.69
2023-01-11T00:14:58.148Z,967.71
2023-01-11T00:15:58.361Z,967.74
2023-01-11T00:16:58.043Z,967.73
2023-01-11T00:17:58.126Z,967.74
2023-01-11T00:18:57.952Z,967.67
2023-01-11T00:19:57.930Z,967.67
2023-01-11T00:20:58.147Z,967.73
2023-01-11T00:21:57.813Z,967.80
2023-01-11T00:22:57.963Z,967.80
2023-01-11T00:23:57.721Z,967.82
2023-01-11T00:24:57.973Z,967.73
2023-01-11T00:25:57.622Z,967.88
2023-01-11T00:26:57.588Z,967.79
2023-01-11T00:27:57.787Z,967.80
2023-01-11T00:28:57.481Z,967.79
2023-01-11T00:29:58.626Z,967.82
2023-01-11T00:30:57.417Z,967.84
2023-01-11T00:31:57.610Z,967.82
2023-01-11T00:32:57.464Z,967.81
2023-01-11T00:33:57.426Z,967.76
2023-01-11T00:34:57.215Z,967.79
2023-01-11T00:35:57.240Z,967.77
2023-01-11T00:36:57.110Z,967.75
2023-01-11T00:37:57.057Z,967.79
2023-01-11T00:38:57.030Z,967.78
2023-01-11T00:39:57.268Z,967.79
2023-01-11T00:40:56.917Z,967.81
2023-01-11T00:41:57.994Z,967.81
2023-01-11T00:42:56.829Z,967.76
2023-01-11T00:43:56.774Z,967.77
2023-01-11T00:44:59.041Z,967.86
2023-01-11T00:45:56.715Z,967.76
2023-01-11T00:46:56.805Z,967.77
2023-01-11T00:47:56.579Z,967.78
2023-01-11T00:48:56.812Z,967.83
2023-01-11T00:49:56.486Z,967.76
2023-01-11T00:50:56.623Z,967.87
2023-01-11T00:51:56.392Z,967.82
2023-01-11T00:52:56.636Z,967.78
2023-01-11T00:53:56.302Z,967.81
2023-01-11T00:54:56.278Z,967.72
2023-01-11T00:55:56.202Z,967.75
2023-01-11T00:56:56.464Z,967.82
2023-01-11T00:57:56.114Z,967.72
2023-01-11T00:58:56.276Z,967.76
2023-01-11T00:59:56.028Z,967.78
2023-01-11T01:00:55.970Z,967.69
2023-01-11T01:01:55.921Z,967.75
2023-01-11T01:02:56.182Z,967.64
2023-01-11T01:03:55.833Z,967.66
2023-01-11T01:04:55.932Z,967.68
2023-01-11T01:05:55.752Z,967.73
2023-01-11T01:06:55.757Z,967.70
2023-01-11T01:07:55.737Z,967.62
2023-01-11T01:08:55.801Z,967.70
2023-01-11T01:09:55.654Z,967.66
2023-01-11T01:10:55.499Z,967.68
2023-01-11T01:11:55.453Z,967.77
2023-01-11T01:12:55.411Z,967.66
2023-01-11T01:13:55.580Z,967.64
2023-01-11T01:14:55.344Z,967.66
2023-01-11T01:15:55.397Z,967.65
2023-01-11T01:16:55.214Z,967.63
2023-01-11T01:17:55.191Z,967.75
2023-01-11T01:18:55.116Z,967.59
2023-01-11T01:19:55.198Z,967.70
2023-01-11T01:20:55.276Z,967.61
2023-01-11T01:21:55.011Z,967.67
2023-01-11T01:22:54.934Z,967.63
2023-01-11T01:23:54.885Z,967.74
2023-01-11T01:24:56.053Z,967.60
2023-01-11T01:25:54.782Z,967.66
2023-01-11T01:26:55.050Z,967.68
2023-01-11T01:27:54.698Z,967.65
2023-01-11T01:28:54.908Z,967.66
2023-01-11T01:29:54.600Z,967.70
2023-01-11T01:30:55.746Z,967.64
2023-01-11T01:31:54.526Z,967.61
2023-01-11T01:32:54.689Z,967.55
2023-01-11T01:33:54.413Z,967.55
2023-01-11T01:34:54.383Z,967.60
2023-01-11T01:35:54.527Z,967.60
2023-01-11T01:36:54.274Z,967.62
2023-01-11T01:37:54.310Z,967.62
2023-01-11T01:38:54.176Z,967.68
2023-01-11T01:39:54.143Z,967.64
2023-01-11T01:40:54.379Z,967.70
2023-01-11T01:41:54.348Z,967.65
2023-01-11T01:42:53.984Z,967.66
2023-01-11T01:43:54.147Z,967.67
2023-01-11T01:44:53.904Z,967.62
2023-01-11T01:45:53.843Z,967.65
2023-01-11T01:46:53.964Z,967.67
2023-01-11T01:47:53.758Z,967.66
2023-01-11T01:48:53.977Z,967.66
2023-01-11T01:49:53.661Z,967.68
2023-01-11T01:50:53.607Z,967.63
2023-01-11T01:51:53.588Z,967.59
2023-01-11T01:52:53.805Z,967.62
2023-01-11T01:53:53.464Z,967.63
2023-01-11T01:54:53.614Z,967.71
2023-01-11T01:55:53.377Z,967.68
2023-01-11T01:56:53.327Z,967.71
2023-01-11T01:57:53.426Z,967.71
2023-01-11T01:58:53.255Z,967.63
2023-01-11T01:59:53.446Z,967.65
2023-01-11T02:00:53.149Z,967.58
2023-01-11T02:01:53.141Z,967.60
2023-01-11T02:02:53.077Z,967.68
2023-01-11T02:03:53.064Z,967.60
2023-01-11T02:04:53.134Z,967.60
2023-01-11T02:05:53.079Z,967.62
2023-01-11T02:06:52.871Z,967.64
2023-01-11T02:07:52.807Z,967.58
2023-01-11T02:08:52.901Z,967.59
2023-01-11T02:09:52.717Z,967.53
2023-01-11T02:10:54.143Z,967.57
2023-01-11T02:11:52.625Z,967.57
2023-01-11T02:12:53.754Z,967.56
2023-01-11T02:13:52.523Z,967.67
2023-01-11T02:14:52.737Z,967.53
2023-01-11T02:15:52.478Z,967.50
2023-01-11T02:16:52.544Z,967.48
2023-01-11T02:17:52.341Z,967.47
2023-01-11T02:18:52.305Z,967.45
2023-01-11T02:19:52.237Z,967.51
2023-01-11T02:20:52.268Z,967.49
2023-01-11T02:21:52.142Z,967.49
2023-01-11T02:22:52.200Z,967.53
2023-01-11T02:23:52.052Z,967.50
2023-01-11T02:24:52.005Z,967.53
2023-01-11T02:25:51.954Z,967.55
2023-01-11T02:26:52.103Z,967.53
2023-01-11T02:27:51.863Z,967.55
2023-01-11T02:28:52.015Z,967.52
2023-01-11T02:29:51.773Z,967.43
2023-01-11T02:30:51.731Z,967.51
2023-01-11T02:31:51.683Z,967.52
2023-01-11T02:32:51.740Z,967.42
2023-01-11T02:33:51.576Z,967.43
2023-01-11T02:34:51.758Z,967.43
2023-01-11T02:35:51.491Z,967.44
2023-01-11T02:36:51.434Z,967.37
2023-01-11T02:37:51.412Z,967.40
2023-01-11T02:38:51.381Z,967.33
2023-01-11T02:39:51.436Z,967.33
2023-01-11T02:40:51.387Z,967.29
2023-01-11T02:41:51.227Z,967.31
2023-01-11T02:42:51.157Z,967.35
2023-01-11T02:43:51.111Z,967.27
2023-01-11T02:44:51.225Z,967.30
2023-01-11T02:45:51.052Z,967.22
2023-01-11T02:46:51.070Z,967.18
2023-01-11T02:47:50.920Z,967.15
2023-01-11T02:48:50.868Z,967.17
2023-01-11T02:49:51.046Z,967.16
2023-01-11T02:50:50.770Z,967.15
2023-01-11T02:51:50.959Z,967.06
2023-01-11T02:52:50.726Z,967.08
2023-01-11T02:53:50.648Z,967.06
2023-01-11T02:54:50.585Z,967.05
2023-01-11T02:55:50.578Z,966.97
2023-01-11T02:56:50.492Z,966.96
2023-01-11T02:57:50.605Z,966.97
2023-01-11T02:58:50.402Z,966.94
2023-01-11T02:59:50.347Z,966.94
2023-01-11T03:00:50.516Z,966.96
2023-01-11T03:01:50.276Z,966.93
2023-01-11T03:02:50.433Z,966.89
2023-01-11T03:03:51.202Z,966.96
2023-01-11T03:04:50.339Z,966.93
2023-01-11T03:05:50.071Z,966.93
2023-01-11T03:06:50.199Z,966.92
2023-01-11T03:07:49.966Z,966.94
2023-01-11T03:08:49.965Z,966.98
2023-01-11T03:09:49.892Z,967.01
2023-01-11T03:10:49.832Z,967.01
2023-01-11T03:11:49.779Z,967.04
2023-01-11T03:12:49.776Z,967.03
2023-01-11T03:13:49.685Z,966.93
2023-01-11T03:14:49.795Z,966.92
2023-01-11T03:15:49.869Z,966.91
2023-01-11T03:16:49.538Z,966.87
2023-01-11T03:18:11.532Z,966.82
2023-01-11T03:18:49.447Z,966.84
2023-01-11T03:19:50.453Z,966.80
2023-01-11T03:20:49.359Z,966.75
2023-01-11T03:21:49.442Z,966.79
2023-01-11T03:22:49.402Z,966.65
2023-01-11T03:23:49.249Z,966.64
2023-01-11T03:24:49.171Z,966.64
2023-01-11T03:25:49.265Z,966.65
2023-01-11T03:26:49.072Z,966.73
2023-01-11T03:27:49.072Z,966.67
2023-01-11T03:28:49.006Z,966.71
2023-01-11T03:29:49.088Z,966.63
2023-01-11T03:30:48.881Z,966.65
2023-01-11T03:31:48.895Z,966.58
2023-01-11T03:32:48.790Z,966.65
2023-01-11T03:33:48.736Z,966.55
2023-01-11T03:34:49.839Z,966.53
2023-01-11T03:35:48.681Z,966.54
2023-01-11T03:36:50.781Z,966.52
2023-01-11T03:37:48.547Z,966.56
2023-01-11T03:38:48.538Z,966.47
2023-01-11T03:39:48.460Z,966.48
2023-01-11T03:40:48.548Z,966.43
2023-01-11T03:41:48.361Z,966.44
2023-01-11T03:42:48.364Z,966.41
2023-01-11T03:43:48.264Z,966.40
2023-01-11T03:44:48.486Z,966.43
2023-01-11T03:45:48.180Z,966.37
2023-01-11T03:46:48.246Z,966.35
2023-01-11T03:47:48.072Z,966.37
2023-01-11T03:48:48.106Z,966.32
2023-01-11T03:49:48.005Z,966.40
2023-01-11T03:50:47.948Z,966.33
2023-01-11T03:51:47.897Z,966.34
2023-01-11T03:52:48.028Z,966.27
2023-01-11T03:53:47.799Z,966.26
2023-01-11T03:54:47.846Z,966.31
2023-01-11T03:55:47.895Z,966.28
2023-01-11T03:56:47.648Z,966.27
2023-01-11T03:57:47.603Z,966.23
2023-01-11T03:58:47.660Z,966.29
2023-01-11T03:59:47.518Z,966.30
2023-01-11T04:00:48.705Z,966.27
2023-01-11T04:01:47.424Z,966.31
2023-01-11T04:02:47.493Z,966.25
2023-01-11T04:03:47.316Z,966.24
2023-01-11T04:04:47.521Z,966.30
2023-01-11T04:05:47.221Z,966.31
2023-01-11T04:06:47.439Z,966.31
2023-01-11T04:07:47.322Z,966.21
2023-01-11T04:08:47.080Z,966.32
2023-01-11T04:09:47.133Z,966.24
2023-01-11T04:10:46.986Z,966.18
2023-01-11T04:11:48.982Z,966.22
2023-01-11T04:12:46.914Z,966.25
2023-01-11T04:13:46.845Z,966.24
2023-01-11T04:14:46.861Z,966.30
2023-01-11T04:15:46.747Z,966.30
2023-01-11T04:17:07.860Z,966.32
2023-01-11T04:17:46.654Z,966.28
2023-01-11T04:18:46.889Z,966.31
2023-01-11T04:19:46.574Z,966.33
2023-01-11T04:20:46.594Z,966.35
2023-01-11T04:21:46.465Z,966.39
2023-01-11T04:22:46.628Z,966.32
2023-01-11T04:23:46.374Z,966.33
2023-01-11T04:24:46.479Z,966.30
2023-01-11T04:25:46.269Z,966.28
2023-01-11T04:26:46.433Z,966.29
2023-01-11T04:27:46.186Z,966.20
2023-01-11T04:28:46.240Z,966.18
2023-01-11T04:29:46.083Z,966.15
2023-01-11T04:30:46.310Z,966.17
2023-01-11T04:31:46.117Z,966.06
2023-01-11T04:32:45.943Z,966.09
2023-01-11T04:33:46.078Z,966.11
2023-01-11T04:34:45.920Z,966.05
2023-01-11T04:35:45.885Z,965.98
2023-01-11T04:36:45.772Z,966.00
2023-01-11T04:37:46.922Z,965.99
2023-01-11T04:38:45.652Z,965.93
2023-01-11T04:39:46.737Z,965.98
2023-01-11T04:40:45.565Z,966.00
2023-01-11T04:41:45.514Z,966.12
2023-01-11T04:42:45.470Z,966.12
2023-01-11T04:43:45.546Z,966.11
2023-01-11T04:44:45.368Z,966.12
2023-01-11T04:45:45.594Z,966.07
2023-01-11T04:46:45.276Z,966.02
2023-01-11T04:47:45.236Z,966.02
2023-01-11T04:48:45.183Z,965.98
2023-01-11T04:49:45.380Z,966.09
2023-01-11T04:50:45.124Z,966.10
2023-01-11T04:51:45.192Z,966.05
2023-01-11T04:52:44.995Z,966.10
2023-01-11T04:53:44.943Z,966.06
2023-01-11T04:54:45.010Z,966.02
2023-01-11T04:55:44.882Z,966.07
2023-01-11T04:56:45.027Z,966.06
2023-01-11T04:57:44.758Z,966.15
2023-01-11T04:58:44.726Z,966.16
2023-01-11T04:59:44.689Z,966.13
2023-01-11T05:00:45.675Z,966.21
2023-01-11T05:01:44.703Z,966.14
2023-01-11T05:02:44.666Z,966.14
2023-01-11T05:03:44.530Z,966.13
2023-01-11T05:04:44.447Z,966.07
2023-01-11T05:05:44.378Z,966.10
2023-01-11T05:06:44.545Z,966.09
2023-01-11T05:07:44.420Z,966.13
2023-01-11T05:08:44.494Z,966.17
2023-01-11T05:09:44.194Z,966.03
2023-01-11T05:10:44.137Z,966.10
2023-01-11T05:11:46.145Z,966.05
2023-01-11T05:12:44.044Z,966.17
2023-01-11T05:13:44.319Z,966.12
2023-01-11T05:14:43.956Z,966.14
2023-01-11T05:15:43.904Z,966.14
2023-01-11T05:16:43.917Z,966.14
2023-01-11T05:17:44.974Z,966.10
2023-01-11T05:18:43.756Z,966.09
2023-01-11T05:19:43.953Z,966.14
2023-01-11T05:20:43.667Z,966.14
2023-01-11T05:21:43.619Z,966.13
2023-01-11T05:22:43.788Z,966.18
2023-01-11T05:23:43.544Z,966.09
2023-01-11T05:24:43.584Z,966.09
2023-01-11T05:25:43.636Z,966.08
2023-01-11T05:26:43.605Z,966.06
2023-01-11T05:27:43.331Z,966.04
2023-01-11T05:28:43.407Z,966.07
2023-01-11T05:29:43.238Z,966.01
2023-01-11T05:30:43.442Z,966.03
2023-01-11T05:31:43.202Z,966.05
2023-01-11T05:32:43.096Z,966.07
2023-01-11T05:33:43.047Z,966.05
2023-01-11T05:34:43.243Z,966.01
2023-01-11T05:35:42.968Z,966.04
2023-01-11T05:36:43.068Z,966.11
2023-01-11T05:37:42.904Z,966.12
2023-01-11T05:38:42.827Z,966.15
2023-01-11T05:39:42.882Z,966.15
2023-01-11T05:40:42.720Z,966.07
2023-01-11T05:41:42.800Z,966.14
2023-01-11T05:42:42.618Z,966.08
2023-01-11T05:43:42.695Z,966.11
2023-01-11T05:44:42.531Z,966.16
2023-01-11T05:45:42.736Z,966.07
2023-01-11T05:46:42.430Z,966.07
2023-01-11T05:47:42.530Z,966.11
2023-01-11T05:48:42.336Z,966.10
2023-01-11T05:49:42.386Z,966.13
2023-01-11T05:50:42.246Z,966.15
2023-01-11T05:51:42.349Z,966.20
2023-01-11T05:52:42.174Z,966.21
2023-01-11T05:53:42.368Z,966.18
2023-01-11T05:54:42.054Z,966.16
2023-01-11T05:55:42.016Z,966.21
2023-01-11T05:56:42.179Z,966.26
2023-01-11T05:57:42.028Z,966.13
2023-01-11T05:58:41.992Z,966.25
2023-01-11T05:59:41.836Z,966.27
2023-01-11T06:03:48.389Z,966.21
2023-01-11T06:04:48.014Z,966.17
2023-01-11T06:05:48.181Z,966.17
2023-01-11T06:06:47.929Z,966.18
2023-01-11T06:07:47.987Z,966.20
2023-01-11T06:08:47.786Z,966.14
2023-01-11T06:09:47.843Z,966.21
2023-01-11T06:10:47.860Z,966.20
2023-01-11T06:11:47.819Z,966.20
2023-01-11T06:12:47.824Z,966.18
2023-01-11T06:13:47.546Z,966.23
2023-01-11T06:14:49.584Z,966.17
2023-01-11T06:15:47.459Z,966.16
2023-01-11T06:16:47.626Z,966.19
2023-01-11T06:17:47.355Z,966.20
2023-01-11T06:18:47.312Z,966.12
2023-01-11T06:19:47.573Z,966.18
2023-01-11T06:20:47.219Z,966.10
2023-01-11T06:21:47.378Z,966.08
2023-01-11T06:22:47.117Z,966.22
2023-01-11T06:23:47.196Z,966.11
2023-01-11T06:24:47.020Z,966.07
2023-01-11T06:25:47.208Z,966.12
2023-01-11T06:26:46.927Z,966.06
2023-01-11T06:27:46.924Z,966.17
2023-01-11T06:28:46.854Z,966.04
2023-01-11T06:29:47.026Z,966.08
2023-01-11T06:30:46.790Z,966.03
2023-01-11T06:31:46.722Z,966.09
2023-01-11T06:32:46.844Z,966.03
2023-01-11T06:33:46.601Z,966.04
2023-01-11T06:34:46.659Z,966.02
2023-01-11T06:35:46.503Z,965.99
2023-01-11T06:36:46.458Z,965.99
2023-01-11T06:37:46.680Z,965.98
2023-01-11T06:38:46.379Z,966.08
2023-01-11T06:39:46.490Z,966.00
2023-01-11T06:40:46.273Z,966.06
2023-01-11T06:41:46.250Z,966.04
2023-01-11T06:42:46.173Z,966.07
2023-01-11T06:43:47.336Z,966.08
2023-01-11T06:44:46.095Z,966.08
2023-01-11T06:45:46.360Z,966.05
2023-01-11T06:46:46.004Z,966.01
2023-01-11T06:47:45.940Z,966.05
2023-01-11T06:48:45.893Z,966.03
2023-01-11T06:49:45.942Z,966.02
2023-01-11T06:50:45.828Z,966.09
2023-01-11T06:51:45.981Z,966.09
2023-01-11T06:52:45.708Z,966.11
2023-01-11T06:53:45.661Z,966.06
2023-01-11T06:54:45.610Z,966.00
2023-01-11T06:55:45.990Z,966.01
2023-01-11T06:56:45.546Z,966.06
2023-01-11T06:57:45.592Z,966.03
2023-01-11T06:58:46.923Z,965.96
2023-01-11T06:59:45.371Z,965.97
2023-01-11T07:00:46.429Z,966.00
2023-01-11T07:01:45.531Z,966.07
2023-01-11T07:02:45.441Z,966.04
2023-01-11T07:03:45.178Z,965.99
2023-01-11T07:04:45.277Z,965.94
2023-01-11T07:05:45.097Z,966.04
2023-01-11T07:06:45.264Z,966.06
2023-01-11T07:07:45.019Z,965.89
2023-01-11T07:08:45.059Z,965.94
2023-01-11T07:09:44.907Z,965.93
2023-01-11T07:10:45.082Z,965.86
2023-01-11T07:11:44.828Z,965.81
2023-01-11T07:12:44.881Z,965.93
2023-01-11T07:13:44.942Z,965.88
2023-01-11T07:14:44.938Z,965.83
2023-01-11T07:15:44.643Z,965.89
2023-01-11T07:16:44.711Z,965.88
2023-01-11T07:17:44.535Z,965.91
2023-01-11T07:18:46.579Z,965.92
2023-01-11T07:19:44.445Z,965.89
2023-01-11T07:20:44.543Z,965.87
2023-01-11T07:21:44.388Z,965.77
2023-01-11T07:22:44.347Z,965.83
2023-01-11T07:23:44.246Z,965.80
2023-01-11T07:24:45.054Z,965.80
2023-01-11T07:25:44.153Z,966.01
2023-01-11T07:26:44.392Z,965.80
2023-01-11T07:27:44.127Z,965.81
2023-01-11T07:28:44.232Z,965.82
2023-01-11T07:29:43.962Z,965.85
2023-01-11T07:30:57.660Z,965.73
2023-01-11T07:31:43.915Z,965.83
2023-01-11T07:32:44.006Z,965.70
2023-01-11T07:33:43.800Z,965.68
2023-01-11T07:34:43.727Z,965.68
2023-01-11T07:35:43.682Z,965.73
2023-01-11T07:36:43.835Z,965.74
2023-01-11T07:37:43.623Z,965.77
2023-01-11T07:38:43.640Z,965.84
2023-01-11T07:39:48.821Z,965.77
2023-01-11T07:40:43.460Z,965.78
2023-01-11T07:41:43.396Z,965.92
2023-01-11T07:42:43.464Z,965.78
2023-01-11T07:43:43.304Z,965.75
2023-01-11T07:44:43.485Z,965.87
2023-01-11T07:45:46.913Z,965.80
2023-01-11T07:46:43.291Z,965.94
2023-01-11T07:47:43.196Z,965.87
2023-01-11T07:48:43.069Z,965.92
2023-01-11T07:49:43.110Z,965.91
2023-01-11T07:50:44.880Z,965.90
2023-01-11T07:51:43.227Z,965.87
2023-01-11T07:52:42.883Z,965.80
2023-01-11T07:53:42.934Z,965.78
2023-01-11T07:54:42.788Z,965.94
2023-01-11T07:55:43.871Z,965.88
2023-01-11T07:56:52.872Z,966.05
2023-01-11T07:57:52.485Z,965.92
2023-01-11T07:58:50.737Z,965.94
2023-01-11T07:59:42.588Z,966.05
2023-01-11T08:00:42.676Z,965.97
2023-01-11T08:01:42.459Z,965.84
2023-01-11T08:02:42.743Z,965.84
2023-01-11T08:03:42.586Z,965.85
2023-01-11T08:04:42.319Z,966.05
2023-01-11T08:05:42.717Z,966.01
2023-01-11T08:06:42.264Z,966.03
2023-01-11T08:07:42.320Z,966.05
2023-01-11T08:08:42.137Z,966.03
2023-01-11T08:09:42.084Z,966.02
2023-01-11T08:10:42.261Z,966.00
2023-01-11T08:11:42.141Z,966.07
2023-01-11T08:12:41.954Z,966.05
2023-01-11T08:13:41.957Z,965.97
2023-01-11T08:14:41.875Z,965.94
2023-01-11T08:15:41.864Z,965.97
2023-01-11T08:16:41.769Z,966.02
2023-01-11T08:17:41.822Z,965.94
2023-01-11T08:18:41.798Z,965.93
2023-01-11T08:19:41.615Z,965.84
2023-01-11T08:20:41.817Z,965.85
2023-01-11T08:21:41.519Z,965.86
2023-01-11T08:22:41.611Z,965.89
2023-01-11T08:23:41.428Z,965.85
2023-01-11T08:24:43.879Z,965.89
2023-01-11T08:25:41.339Z,965.86
2023-01-11T08:26:41.476Z,965.84
2023-01-11T08:27:41.243Z,965.85
2023-01-11T08:28:41.450Z,965.81
2023-01-11T08:29:41.148Z,965.84
2023-01-11T08:30:41.295Z,965.84
2023-01-11T08:31:41.053Z,965.84
2023-01-11T08:32:41.270Z,965.83
2023-01-11T08:33:40.961Z,965.91
2023-01-11T08:34:41.082Z,965.88
2023-01-11T08:35:40.874Z,965.89
2023-01-11T08:36:41.116Z,965.96
2023-01-11T08:37:40.819Z,965.96
2023-01-11T08:38:40.732Z,965.97
2023-01-11T08:39:40.685Z,965.97
2023-01-11T08:40:40.926Z,965.93
2023-01-11T08:41:40.594Z,965.92
2023-01-11T08:42:40.735Z,965.89
2023-01-11T08:43:40.802Z,965.91
2023-01-11T08:44:40.448Z,965.95
2023-01-11T08:45:40.549Z,965.91
2023-01-11T08:46:40.379Z,965.89
2023-01-11T08:47:40.561Z,965.92
2023-01-11T08:48:40.269Z,965.89
2023-01-11T08:49:40.385Z,965.91
2023-01-11T08:50:40.184Z,965.87
2023-01-11T08:51:40.391Z,965.94
2023-01-11T08:52:40.108Z,965.87
2023-01-11T08:53:41.323Z,965.92
2023-01-11T08:54:39.989Z,965.86
2023-01-11T08:55:39.950Z,966.03
2023-01-11T08:56:39.889Z,965.98
2023-01-11T08:57:40.043Z,966.02
2023-01-11T08:58:39.796Z,966.09
2023-01-11T08:59:40.052Z,966.08
2023-01-11T09:00:39.722Z,966.04
2023-01-11T09:01:39.918Z,966.11
2023-01-11T09:02:39.886Z,966.12
2023-01-11T09:03:39.572Z,966.06
2023-01-11T09:04:39.675Z,966.12
2023-01-11T09:05:39.487Z,966.05
2023-01-11T09:06:40.707Z,966.15
2023-01-11T09:07:39.404Z,966.25
2023-01-11T09:08:39.489Z,966.15
2023-01-11T09:09:39.291Z,966.07
2023-01-11T09:10:39.711Z,966.12
2023-01-11T09:11:39.196Z,966.14
2023-01-11T09:12:39.151Z,966.09
2023-01-11T09:13:39.105Z,966.15
2023-01-11T09:14:39.330Z,966.17
2023-01-11T09:15:39.051Z,966.21
2023-01-11T09:16:39.137Z,966.21
2023-01-11T09:17:38.943Z,966.15
2023-01-11T09:18:39.003Z,966.16
2023-01-11T09:19:38.959Z,966.21
2023-01-11T09:20:38.782Z,966.15
2023-01-11T09:21:38.993Z,966.20
2023-01-11T09:22:38.721Z,966.20
2023-01-11T09:23:38.843Z,966.31
2023-01-11T09:24:38.593Z,966.29
2023-01-11T09:25:38.798Z,966.36
2023-01-11T09:26:38.600Z,966.28
2023-01-11T09:27:38.605Z,966.23
2023-01-11T09:28:38.662Z,966.28
2023-01-11T09:29:38.414Z,966.31
2023-01-11T09:30:38.333Z,966.28
2023-01-11T09:31:38.612Z,966.28
2023-01-11T09:32:38.227Z,966.29
2023-01-11T09:33:38.340Z,966.25
2023-01-11T09:34:38.166Z,966.21
2023-01-11T09:35:38.092Z,966.23
2023-01-11T09:36:38.159Z,966.21
2023-01-11T09:37:38.005Z,966.22
2023-01-11T09:38:38.171Z,966.28
2023-01-11T09:39:37.909Z,966.24
2023-01-11T09:40:38.190Z,966.24
2023-01-11T09:41:37.810Z,966.19
2023-01-11T09:42:40.065Z,966.22
2023-01-11T09:43:37.725Z,966.23
2023-01-11T09:44:37.801Z,966.24
2023-01-11T09:45:37.637Z,966.22
2023-01-11T09:46:37.868Z,966.15
2023-01-11T09:47:37.540Z,966.24
2023-01-11T09:48:37.637Z,966.19
2023-01-11T09:49:37.456Z,966.22
2023-01-11T09:50:37.452Z,966.18
2023-01-11T09:51:37.354Z,966.17
2023-01-11T09:52:37.503Z,966.12
2023-01-11T09:53:37.271Z,966.13
2023-01-11T09:54:37.476Z,966.10
2023-01-11T09:55:37.203Z,966.17
2023-01-11T09:56:37.289Z,966.09
2023-01-11T09:57:37.345Z,966.09
2023-01-11T09:58:37.072Z,966.13
2023-01-11T09:59:36.984Z,966.13
2023-01-11T10:00:37.354Z,966.17
2023-01-11T10:01:36.894Z,966.20
2023-01-11T10:02:37.125Z,966.18
2023-01-11T10:03:36.834Z,966.10
2023-01-11T10:04:36.807Z,966.20
2023-01-11T10:05:36.710Z,966.10
2023-01-11T10:06:36.947Z,966.16
2023-01-11T10:07:36.614Z,966.25
2023-01-11T10:18:22.729Z,966.09
2023-01-11T10:18:30.653Z,966.05
2023-01-11T10:18:30.855Z,966.10
2023-01-11T10:18:33.919Z,966.08
2023-01-11T10:18:57.988Z,965.99
2023-01-11T10:19:40.816Z,966.03
2023-01-11T10:20:36.285Z,966.01
2023-01-11T10:21:35.967Z,965.98
2023-01-11T10:22:36.253Z,965.94
2023-01-11T10:23:35.902Z,965.96
2023-01-11T10:24:36.071Z,965.93
2023-01-11T10:25:35.786Z,965.96
2023-01-11T10:26:35.968Z,965.93
2023-01-11T10:27:35.801Z,965.93
2023-01-11T10:28:36.087Z,965.85
2023-01-11T10:29:35.601Z,965.93
2023-01-11T10:30:36.719Z,965.93
2023-01-11T10:31:35.612Z,965.87
2023-01-11T10:32:35.707Z,965.81
2023-01-11T10:33:35.462Z,965.87
2023-01-11T10:34:35.615Z,965.78
2023-01-11T10:35:35.350Z,965.80
2023-01-11T10:36:36.450Z,965.77
2023-01-11T10:37:35.242Z,965.81
2023-01-11T10:38:35.183Z,965.84
2023-01-11T10:39:35.509Z,965.84
2023-01-11T10:40:35.283Z,965.80
2023-01-11T10:41:35.041Z,965.79
2023-01-11T10:42:35.264Z,965.67
2023-01-11T10:43:34.959Z,965.69
2023-01-11T10:44:35.128Z,965.72
2023-01-11T10:45:35.989Z,965.76
2023-01-11T10:46:34.808Z,965.75
2023-01-11T10:47:42.828Z,965.77
2023-01-11T10:48:35.934Z,965.85
2023-01-11T10:49:35.936Z,965.81
2023-01-11T10:50:34.614Z,965.77
2023-01-11T10:51:34.718Z,965.76
2023-01-11T10:52:34.525Z,965.80
2023-01-11T10:53:34.527Z,965.75
2023-01-11T10:54:45.038Z,965.76
2023-01-11T10:55:41.691Z,965.74
2023-01-11T10:57:03.201Z,965.72
2023-01-11T10:58:01.554Z,965.72
2023-01-11T10:58:34.242Z,965.72
2023-01-11T10:59:34.193Z,965.72
2023-01-11T11:00:34.439Z,965.67
2023-01-11T11:01:34.100Z,965.74
2023-01-11T11:02:34.330Z,965.71
2023-01-11T11:03:34.347Z,965.71
2023-01-11T11:04:34.093Z,965.72
2023-01-11T11:05:33.916Z,965.71
2023-01-11T11:06:34.144Z,965.68
2023-01-11T11:07:33.820Z,965.66
2023-01-11T11:08:33.922Z,965.66
2023-01-11T11:09:33.897Z,965.69
2023-01-11T11:10:33.944Z,965.71
2023-01-11T11:11:33.631Z,965.68
2023-01-11T11:12:33.583Z,965.71
2023-01-11T11:13:33.539Z,965.67
2023-01-11T11:14:33.659Z,965.68
2023-01-11T11:15:33.513Z,965.64
2023-01-11T11:16:33.516Z,965.68
2023-01-11T11:17:33.361Z,965.68
2023-01-11T11:18:33.302Z,965.68
2023-01-11T11:19:33.251Z,965.67
2023-01-11T11:20:33.391Z,965.54
2023-01-11T11:21:33.173Z,965.55
2023-01-11T11:22:34.331Z,965.52
2023-01-11T11:23:33.066Z,965.55
2023-01-11T11:24:33.061Z,965.62
2023-01-11T11:25:33.128Z,965.59
2023-01-11T11:26:32.972Z,965.62
2023-01-11T11:27:32.941Z,965.63
2023-01-11T11:28:32.828Z,965.66
2023-01-11T11:29:32.786Z,965.59
2023-01-11T11:30:32.741Z,965.68
2023-01-11T11:31:32.838Z,965.66
2023-01-11T11:32:33.131Z,965.66
2023-01-11T11:33:32.770Z,965.66
2023-01-11T11:34:32.559Z,965.64
2023-01-11T11:35:32.500Z,965.65
2023-01-11T11:36:32.494Z,965.69
2023-01-11T11:37:32.605Z,965.68
2023-01-11T11:38:32.544Z,965.65
2023-01-11T11:39:32.417Z,965.62
2023-01-11T11:40:32.274Z,965.73
2023-01-11T11:41:32.231Z,965.70
2023-01-11T11:42:32.245Z,965.64
2023-01-11T11:43:32.129Z,965.78
2023-01-11T11:44:33.272Z,965.66
2023-01-11T11:45:32.167Z,965.65
2023-01-11T11:46:32.094Z,965.73
2023-01-11T11:47:31.939Z,965.74
2023-01-11T11:48:32.067Z,965.69
2023-01-11T11:49:31.874Z,965.60
2023-01-11T11:50:44.141Z,965.66
2023-01-11T11:51:31.765Z,965.57
2023-01-11T11:52:32.915Z,965.55
2023-01-11T11:53:31.687Z,965.49
2023-01-11T11:54:31.704Z,965.52
2023-01-11T11:55:31.570Z,965.54
2023-01-11T11:56:32.855Z,965.51
2023-01-11T11:57:31.511Z,965.50
2023-01-11T11:58:31.428Z,965.44
2023-01-11T11:59:31.388Z,965.42
2023-01-11T12:00:31.538Z,965.37
2023-01-11T12:01:31.290Z,965.48
2023-01-11T12:02:31.410Z,965.45
2023-01-11T12:03:32.628Z,965.45
2023-01-11T12:04:31.148Z,965.41
2023-01-11T12:05:31.105Z,965.45
2023-01-11T12:06:31.175Z,965.51
2023-01-11T12:07:31.005Z,965.47
2023-01-11T12:08:31.185Z,965.38
2023-01-11T12:09:31.001Z,965.42
2023-01-11T12:10:30.942Z,965.46
2023-01-11T12:11:30.897Z,965.51
2023-01-11T12:12:30.771Z,965.43
2023-01-11T12:13:30.813Z,965.51
2023-01-11T12:14:30.682Z,965.49
2023-01-11T12:15:30.827Z,965.53
2023-01-11T12:16:30.711Z,965.43
2023-01-11T12:17:30.636Z,965.44
2023-01-11T12:18:30.528Z,965.48
2023-01-11T12:19:30.650Z,965.37
2023-01-11T12:20:30.416Z,965.45
2023-01-11T12:21:30.456Z,965.38
2023-01-11T12:22:30.551Z,965.45
2023-01-11T12:23:30.473Z,965.37
2023-01-11T12:24:30.213Z,965.43
2023-01-11T12:25:30.382Z,965.34
2023-01-11T12:26:30.121Z,965.42
2023-01-11T12:27:30.067Z,965.45
2023-01-11T12:28:30.040Z,965.34
2023-01-11T12:29:30.218Z,965.45
2023-01-11T12:30:29.968Z,965.40
2023-01-11T12:31:30.020Z,965.36
2023-01-11T12:32:29.834Z,965.38
2023-01-11T12:33:29.789Z,965.43
2023-01-11T12:34:29.759Z,965.36
2023-01-11T12:35:29.846Z,965.39
2023-01-11T12:36:29.656Z,965.42
2023-01-11T12:37:29.658Z,965.35